createdAt,value
2023-03-08T00:02:22.876Z,93904.75
2023-03-08T00:04:49.402Z,93898.31
2023-03-08T00:07:16.504Z,93896.13
2023-03-08T00:09:43.059Z,93908.47
2023-03-08T00:12:09.970Z,93906.09
2023-03-08T00:14:36.640Z,93902.94
2023-03-08T00:17:03.154Z,93913.72
2023-03-08T00:19:29.887Z,93913.25
2023-03-08T00:21:56.539Z,93912.34
2023-03-08T00:24:23.672Z,93912.47
2023-03-08T00:26:50.068Z,93908.31
2023-03-08T00:29:16.601Z,93905.59
2023-03-08T00:31:43.167Z,93912.47
2023-03-08T00:34:09.705Z,93921.47
2023-03-08T00:36:38.856Z,93907.72
2023-03-08T00:39:05.602Z,93897.16
2023-03-08T00:41:35.673Z,93908.75
2023-03-08T00:44:02.433Z,93902.53
2023-03-08T00:46:29.016Z,93902.53
2023-03-08T00:48:55.749Z,93891.13
2023-03-08T00:51:22.506Z,93909.53
2023-03-08T00:53:52.832Z,93907.72
2023-03-08T00:56:19.366Z,93912.25
2023-03-08T00:58:46.667Z,93894.78
2023-03-08T01:01:16.451Z,93907.16
2023-03-08T01:03:43.043Z,93903.72
2023-03-08T01:06:12.527Z,93913.44
2023-03-08T01:08:41.736Z,93898.53
2023-03-08T01:11:18.501Z,93918.03
2023-03-08T01:13:47.799Z,93895.06
2023-03-08T01:16:16.522Z,93935.28
2023-03-08T01:18:43.175Z,93901.63
2023-03-08T01:21:10.664Z,93896.84
2023-03-08T01:23:37.142Z,93904.16
2023-03-08T01:26:06.182Z,93914.16
2023-03-08T01:28:33.700Z,93913.78
2023-03-08T01:31:06.192Z,93910.78
2023-03-08T01:33:33.613Z,93910.91
2023-03-08T01:36:02.710Z,93910.00
2023-03-08T01:38:29.205Z,93905.94
2023-03-08T01:40:56.509Z,93909.44
2023-03-08T01:43:25.452Z,93913.91
2023-03-08T01:46:17.019Z,93900.31
2023-03-08T01:48:50.624Z,93909.00
2023-03-08T01:51:23.191Z,93904.03
2023-03-08T01:53:50.489Z,93897.91
2023-03-08T01:56:19.155Z,93891.78
2023-03-08T01:58:49.829Z,93872.72
2023-03-08T02:01:18.264Z,93881.53
2023-03-08T02:03:45.370Z,93874.41
2023-03-08T02:06:13.618Z,93883.91
2023-03-08T02:08:41.562Z,93874.53
2023-03-08T02:11:08.863Z,93854.56
2023-03-08T02:13:35.574Z,93859.66
2023-03-08T02:16:09.885Z,93840.16
2023-03-08T02:18:48.208Z,93864.97
2023-03-08T02:21:14.924Z,93827.31
2023-03-08T02:23:42.110Z,93870.63
2023-03-08T02:26:12.525Z,93863.47
2023-03-08T02:28:40.372Z,93855.16
2023-03-08T02:31:08.505Z,93838.59
2023-03-08T02:33:36.980Z,93859.72
2023-03-08T02:36:06.668Z,93856.94
2023-03-08T02:38:33.582Z,93846.88
2023-03-08T02:41:00.807Z,93822.88
2023-03-08T02:43:27.393Z,93839.41
2023-03-08T02:45:53.960Z,93851.81
2023-03-08T02:48:20.596Z,93841.22
2023-03-08T02:50:49.318Z,93842.53
2023-03-08T02:53:18.787Z,93833.69
2023-03-08T02:55:45.379Z,93839.31
2023-03-08T02:58:13.623Z,93841.34
2023-03-08T03:00:40.285Z,93839.19
2023-03-08T03:03:06.800Z,93820.69
2023-03-08T03:05:33.270Z,93806.88
2023-03-08T03:08:02.615Z,93837.88
2023-03-08T03:10:29.893Z,93831.53
2023-03-08T03:12:56.524Z,93832.25
2023-03-08T03:15:27.761Z,93827.53
2023-03-08T03:17:57.775Z,93830.59
2023-03-08T03:20:24.273Z,93828.56
2023-03-08T03:22:51.355Z,93815.06
2023-03-08T03:25:21.399Z,93823.16
2023-03-08T03:27:49.014Z,93820.63
2023-03-08T03:30:16.421Z,93815.03
2023-03-08T03:32:44.203Z,93805.69
2023-03-08T03:35:12.226Z,93812.25
2023-03-08T03:37:38.770Z,93798.75
2023-03-08T03:40:07.384Z,93800.75
2023-03-08T03:42:33.863Z,93807.38
2023-03-08T03:45:07.150Z,93806.00
2023-03-08T03:47:34.195Z,93802.25
2023-03-08T03:50:06.498Z,93775.00
2023-03-08T03:52:43.268Z,93788.31
2023-03-08T03:55:09.904Z,93792.50
2023-03-08T03:57:36.695Z,93791.56
2023-03-08T04:00:04.849Z,93781.63
2023-03-08T04:02:40.002Z,93784.59
2023-03-08T04:05:10.925Z,93788.69
2023-03-08T04:07:38.302Z,93772.91
2023-03-08T04:10:07.168Z,93791.31
2023-03-08T04:12:36.178Z,93788.06
2023-03-08T04:15:03.122Z,93786.69
2023-03-08T04:17:32.268Z,93789.13
2023-03-08T04:19:58.827Z,93777.69
2023-03-08T04:22:27.976Z,93774.81
2023-03-08T04:25:02.484Z,93774.22
2023-03-08T04:27:38.104Z,93780.16
2023-03-08T04:30:05.714Z,93772.50
2023-03-08T04:32:35.546Z,93765.34
2023-03-08T04:35:02.577Z,93767.84
2023-03-08T04:37:31.584Z,93749.75
2023-03-08T04:40:08.577Z,93758.91
2023-03-08T04:42:40.162Z,93713.19
2023-03-08T04:45:09.950Z,93744.00
2023-03-08T04:47:36.784Z,93736.41
2023-03-08T04:50:04.111Z,93744.44
2023-03-08T04:52:32.301Z,93738.41
2023-03-08T04:54:58.827Z,93738.22
2023-03-08T04:57:29.165Z,93737.25
2023-03-08T04:59:58.756Z,93728.38
2023-03-08T05:02:25.768Z,93724.59
2023-03-08T05:04:52.308Z,93720.34
2023-03-08T05:07:19.809Z,93723.47
2023-03-08T05:09:48.932Z,93688.72
2023-03-08T05:12:15.379Z,93695.66
2023-03-08T05:14:49.727Z,93683.69
2023-03-08T05:17:16.244Z,93691.25
2023-03-08T05:19:42.723Z,93684.25
2023-03-08T05:22:10.479Z,93686.22
2023-03-08T05:24:42.646Z,93681.16
2023-03-08T05:27:12.144Z,93681.66
2023-03-08T05:29:38.859Z,93686.72
2023-03-08T05:32:06.591Z,93670.59
2023-03-08T05:34:34.066Z,93679.19
2023-03-08T05:37:02.197Z,93676.88
2023-03-08T05:39:30.784Z,93673.38
2023-03-08T05:42:03.157Z,93668.69
2023-03-08T05:44:37.607Z,93668.94
2023-03-08T05:47:05.131Z,93646.53
2023-03-08T05:49:31.544Z,93658.91
2023-03-08T05:51:58.888Z,93657.31
2023-03-08T05:54:27.192Z,93650.09
2023-03-08T05:56:57.412Z,93663.69
2023-03-08T05:59:26.032Z,93663.16
2023-03-08T06:01:55.001Z,93667.38
2023-03-08T06:04:30.401Z,93661.06
2023-03-08T06:06:56.858Z,93658.69
2023-03-08T06:09:28.688Z,93657.19
2023-03-08T06:11:55.310Z,93645.50
2023-03-08T06:14:23.034Z,93657.63
2023-03-08T06:16:50.606Z,93655.13
2023-03-08T06:19:20.326Z,93646.16
2023-03-08T06:21:49.774Z,93663.38
2023-03-08T06:24:16.443Z,93667.13
2023-03-08T06:26:42.918Z,93653.38
2023-03-08T06:29:09.827Z,93659.13
2023-03-08T06:31:37.012Z,93661.56
2023-03-08T06:34:05.443Z,93659.06
2023-03-08T06:36:32.701Z,93663.53
2023-03-08T06:39:00.225Z,93663.00
2023-03-08T06:41:26.697Z,93671.81
2023-03-08T06:43:56.179Z,93674.00
2023-03-08T06:46:22.645Z,93665.97
2023-03-08T06:48:49.527Z,93677.94
2023-03-08T06:51:17.678Z,93665.06
2023-03-08T06:53:46.054Z,93674.41
2023-03-08T06:56:16.159Z,93668.56
2023-03-08T06:58:43.280Z,93677.31
2023-03-08T07:01:10.685Z,93670.16
2023-03-08T07:03:37.776Z,93669.59
2023-03-08T07:06:06.156Z,93663.56
2023-03-08T07:08:36.545Z,93663.94
2023-03-08T07:11:09.771Z,93668.44
2023-03-08T07:13:36.896Z,93682.13
2023-03-08T07:16:06.833Z,93672.75
2023-03-08T07:18:33.389Z,93678.81
2023-03-08T07:20:59.838Z,93701.66
2023-03-08T07:23:26.208Z,93701.53
2023-03-08T07:25:52.642Z,93700.34
2023-03-08T07:28:20.733Z,93692.16
2023-03-08T07:30:48.202Z,93677.94
2023-03-08T07:33:15.410Z,93672.69
2023-03-08T07:35:41.944Z,93671.50
2023-03-08T07:38:08.517Z,93681.28
2023-03-08T07:40:34.978Z,93662.72
2023-03-08T07:43:01.449Z,93672.88
2023-03-08T07:45:37.558Z,93679.16
2023-03-08T07:48:04.288Z,93669.19
2023-03-08T07:50:30.746Z,93675.63
2023-03-08T07:52:58.744Z,93675.59
2023-03-08T07:55:26.804Z,93673.63
2023-03-08T07:57:53.321Z,93667.16
2023-03-08T08:00:20.771Z,93644.63
2023-03-08T08:02:48.178Z,93634.75
2023-03-08T08:05:14.888Z,93630.38
2023-03-08T08:07:41.379Z,93624.00
2023-03-08T08:10:09.157Z,93627.44
2023-03-08T08:12:35.634Z,93624.78
2023-03-08T08:15:02.039Z,93620.97
2023-03-08T08:17:28.906Z,93605.25
2023-03-08T08:19:56.160Z,93603.03
2023-03-08T08:22:22.662Z,93595.56
2023-03-08T08:24:49.090Z,93587.72
2023-03-08T08:27:15.497Z,93582.97
2023-03-08T08:29:45.434Z,93587.94
2023-03-08T08:32:11.882Z,93567.91
2023-03-08T08:34:38.300Z,93552.63
2023-03-08T08:37:05.386Z,93534.91
2023-03-08T08:39:32.003Z,93535.63
2023-03-08T08:41:58.535Z,93531.84
2023-03-08T08:44:25.072Z,93515.13
2023-03-08T08:46:51.552Z,93520.78
2023-03-08T08:49:18.128Z,93511.19
2023-03-08T08:51:44.541Z,93498.56
2023-03-08T08:54:11.639Z,93495.59
2023-03-08T08:56:43.193Z,93494.16
2023-03-08T08:59:11.268Z,93501.91
2023-03-08T09:01:42.716Z,93504.97
2023-03-08T09:04:09.661Z,93484.50
2023-03-08T09:06:36.597Z,93487.25
2023-03-08T09:09:04.282Z,93484.31
2023-03-08T09:11:33.526Z,93475.72
2023-03-08T09:14:03.061Z,93479.59
2023-03-08T09:16:31.206Z,93479.84
2023-03-08T09:18:59.803Z,93481.47
2023-03-08T09:21:27.454Z,93464.06
2023-03-08T09:23:54.589Z,93454.28
2023-03-08T09:26:21.312Z,93459.84
2023-03-08T09:28:48.433Z,93453.88
2023-03-08T09:31:17.084Z,93447.94
2023-03-08T09:33:45.311Z,93441.50
2023-03-08T09:36:12.401Z,93441.03
2023-03-08T09:38:39.440Z,93441.28
2023-03-08T09:41:21.104Z,93440.88
2023-03-08T09:44:13.478Z,93420.19
2023-03-08T09:46:45.796Z,93419.84
2023-03-08T09:49:17.269Z,93423.50
2023-03-08T09:51:50.504Z,93411.09
2023-03-08T09:54:19.890Z,93425.97
2023-03-08T09:56:48.746Z,93437.63
2023-03-08T09:59:20.927Z,93438.75
2023-03-08T10:01:55.698Z,93417.63
2023-03-08T10:04:44.183Z,93400.38
2023-03-08T10:07:20.960Z,93390.44
2023-03-08T10:09:55.499Z,93407.66
2023-03-08T10:12:29.531Z,93402.47
2023-03-08T10:15:02.988Z,93404.88
2023-03-08T10:17:39.101Z,93407.66
2023-03-08T10:20:16.647Z,93404.66
2023-03-08T10:22:43.993Z,93393.13
2023-03-08T10:25:21.387Z,93398.34
2023-03-08T10:27:51.119Z,93409.44
2023-03-08T10:30:21.452Z,93417.88
2023-03-08T10:32:50.327Z,93427.31
2023-03-08T10:35:17.962Z,93441.50
2023-03-08T10:37:50.389Z,93432.44
2023-03-08T10:40:20.590Z,93441.94
2023-03-08T10:42:52.619Z,93440.72
2023-03-08T10:45:21.744Z,93422.53
2023-03-08T10:47:55.010Z,93432.75
2023-03-08T10:50:25.491Z,93442.94
2023-03-08T10:52:51.977Z,93459.28
2023-03-08T10:55:20.246Z,93463.59
2023-03-08T10:57:52.408Z,93460.63
2023-03-08T11:00:31.400Z,93438.41
2023-03-08T11:03:12.868Z,93453.63
2023-03-08T11:05:39.696Z,93445.69
2023-03-08T11:08:18.090Z,93441.78
2023-03-08T11:10:44.556Z,93438.59
2023-03-08T11:13:30.587Z,93438.38
2023-03-08T11:16:08.131Z,93437.53
2023-03-08T11:18:46.514Z,93429.38
2023-03-08T11:21:20.618Z,93424.13
2023-03-08T11:23:55.153Z,93408.84
2023-03-08T11:26:32.836Z,93404.38
2023-03-08T11:29:13.976Z,93404.53
2023-03-08T11:31:51.965Z,93394.69
2023-03-08T11:34:40.108Z,93384.72
2023-03-08T11:37:14.817Z,93374.53
2023-03-08T11:39:46.229Z,93356.03
2023-03-08T11:42:21.855Z,93360.59
2023-03-08T11:45:16.854Z,93358.09
2023-03-08T11:48:24.423Z,93349.28
2023-03-08T11:50:55.301Z,93331.34
2023-03-08T11:53:32.180Z,93336.31
2023-03-08T11:56:26.277Z,93338.50
2023-03-08T11:58:58.981Z,93353.28
2023-03-08T12:01:29.030Z,93342.25
2023-03-08T12:04:02.430Z,93340.38
2023-03-08T12:06:34.855Z,93333.59
2023-03-08T12:09:07.221Z,93350.91
2023-03-08T12:11:41.382Z,93337.69
2023-03-08T12:14:16.905Z,93332.16
2023-03-08T12:16:48.511Z,93333.25
2023-03-08T12:19:24.670Z,93328.88
2023-03-08T12:21:59.784Z,93334.25
2023-03-08T12:24:41.724Z,93341.28
2023-03-08T12:27:14.345Z,93329.56
2023-03-08T12:29:46.091Z,93325.91
2023-03-08T12:32:14.016Z,93328.94
2023-03-08T12:34:43.192Z,93336.75
2023-03-08T12:37:24.640Z,93325.72
2023-03-08T12:39:57.525Z,93328.91
2023-03-08T12:42:34.330Z,93326.44
2023-03-08T12:45:27.616Z,93317.75
2023-03-08T12:47:57.137Z,93325.44
2023-03-08T12:50:24.805Z,93319.97
2023-03-08T12:52:51.301Z,93324.59
2023-03-08T12:55:20.710Z,93319.56
2023-03-08T12:57:49.558Z,93313.78
2023-03-08T13:00:29.095Z,93320.53
2023-03-08T13:03:01.268Z,93329.50
2023-03-08T13:05:34.479Z,93319.19
2023-03-08T13:08:07.143Z,93319.97
2023-03-08T13:10:35.926Z,93322.34
2023-03-08T13:13:37.509Z,93342.88
2023-03-08T13:16:17.332Z,93397.69
2023-03-08T13:18:46.988Z,93319.13
2023-03-08T13:21:28.168Z,93351.78
2023-03-08T13:23:58.802Z,93320.69
2023-03-08T13:26:50.593Z,93328.00
2023-03-08T13:29:19.979Z,93327.28
2023-03-08T13:31:47.853Z,93303.66
2023-03-08T13:34:24.762Z,93316.75
2023-03-08T13:36:51.888Z,93320.00
2023-03-08T13:39:20.744Z,93316.91
2023-03-08T13:41:48.346Z,93319.44
2023-03-08T13:44:16.860Z,93315.81
2023-03-08T13:46:44.151Z,93333.25
2023-03-08T13:49:15.443Z,93334.06
2023-03-08T13:51:44.002Z,93329.75
2023-03-08T13:54:16.291Z,93327.63
2023-03-08T13:56:43.025Z,93334.16
2023-03-08T13:59:18.210Z,93322.47
2023-03-08T14:01:49.085Z,93321.22
2023-03-08T14:04:19.971Z,93315.63
2023-03-08T14:06:51.487Z,93314.00
2023-03-08T14:09:18.779Z,93307.44
2023-03-08T14:11:46.720Z,93308.72
2023-03-08T14:14:18.998Z,93293.72
2023-03-08T14:16:46.578Z,93289.88
2023-03-08T14:19:23.291Z,93272.50
2023-03-08T14:21:52.452Z,93296.34
2023-03-08T14:24:22.337Z,93289.88
2023-03-08T14:27:00.025Z,93324.41
2023-03-08T14:29:28.203Z,93317.09
2023-03-08T14:32:05.101Z,93302.97
2023-03-08T14:34:35.303Z,93292.94
2023-03-08T14:37:05.972Z,93325.59
2023-03-08T14:39:34.981Z,93285.25
2023-03-08T14:42:11.047Z,93301.69
2023-03-08T14:44:37.689Z,93331.34
2023-03-08T14:47:19.770Z,93304.97
2023-03-08T14:49:54.856Z,93307.00
2023-03-08T14:52:21.579Z,93307.00
2023-03-08T14:54:48.639Z,93286.72
2023-03-08T14:57:18.181Z,93321.72
2023-03-08T14:59:45.170Z,93299.69
2023-03-08T15:02:12.938Z,93301.03
2023-03-08T15:04:40.106Z,93278.00
2023-03-08T15:07:07.454Z,93277.78
2023-03-08T15:09:34.877Z,93259.56
2023-03-08T15:12:02.160Z,93261.84
2023-03-08T15:14:29.795Z,93262.56
2023-03-08T15:16:57.577Z,93246.06
2023-03-08T15:19:24.381Z,93238.09
2023-03-08T15:21:50.816Z,93246.81
2023-03-08T15:24:18.657Z,93261.69
2023-03-08T15:26:45.710Z,93230.56
2023-03-08T15:29:24.776Z,93216.72
2023-03-08T15:31:51.322Z,93233.94
2023-03-08T15:34:17.754Z,93224.91
2023-03-08T15:36:44.210Z,93230.28
2023-03-08T15:39:11.777Z,93233.88
2023-03-08T15:41:38.319Z,93202.00
2023-03-08T15:44:04.990Z,93214.59
2023-03-08T15:46:32.192Z,93219.78
2023-03-08T15:49:07.810Z,93215.44
2023-03-08T15:51:35.569Z,93210.06
2023-03-08T15:54:02.226Z,93201.56
2023-03-08T15:56:28.744Z,93208.53
2023-03-08T15:58:55.300Z,93196.16
2023-03-08T16:01:22.324Z,93190.78
2023-03-08T16:03:52.711Z,93196.94
2023-03-08T16:06:19.293Z,93191.03
2023-03-08T16:08:45.807Z,93194.09
2023-03-08T16:11:14.721Z,93192.25
2023-03-08T16:13:41.362Z,93188.91
2023-03-08T16:16:08.623Z,93181.47
2023-03-08T16:18:36.407Z,93208.63
2023-03-08T16:21:08.049Z,93189.09
2023-03-08T16:23:34.910Z,93178.03
2023-03-08T16:26:14.756Z,93182.88
2023-03-08T16:28:44.285Z,93167.97
2023-03-08T16:31:10.974Z,93178.75
2023-03-08T16:33:37.389Z,93183.34
2023-03-08T16:36:04.071Z,93178.19
2023-03-08T16:38:31.659Z,93167.88
2023-03-08T16:41:11.559Z,93180.19
2023-03-08T16:43:46.297Z,93166.53
2023-03-08T16:46:14.935Z,93165.69
2023-03-08T16:48:41.753Z,93174.91
2023-03-08T16:51:13.802Z,93166.69
2023-03-08T16:53:40.951Z,93211.81
2023-03-08T16:56:08.481Z,93173.66
2023-03-08T16:58:35.019Z,93179.03
2023-03-08T17:01:01.576Z,93167.94
2023-03-08T17:03:28.146Z,93160.41
2023-03-08T17:05:54.700Z,93172.69
2023-03-08T17:08:21.214Z,93182.72
2023-03-08T17:10:48.279Z,93184.13
2023-03-08T17:13:14.797Z,93176.88
2023-03-08T17:15:42.780Z,93185.53
2023-03-08T17:18:10.183Z,93181.66
2023-03-08T17:20:38.726Z,93192.22
2023-03-08T17:23:05.576Z,93177.94
2023-03-08T17:25:34.296Z,93193.66
2023-03-08T17:28:02.930Z,93204.41
2023-03-08T17:30:29.619Z,93219.94
2023-03-08T17:32:57.207Z,93217.19
2023-03-08T17:35:24.341Z,93223.66
2023-03-08T17:37:51.144Z,93222.69
2023-03-08T17:40:20.519Z,93229.28
2023-03-08T17:42:49.920Z,93242.84
2023-03-08T17:45:18.075Z,93239.50
2023-03-08T17:47:44.897Z,93230.25
2023-03-08T17:50:15.159Z,93236.34
2023-03-08T17:52:44.765Z,93216.00
2023-03-08T17:55:11.296Z,93206.19
2023-03-08T17:57:38.727Z,93202.81
2023-03-08T18:00:10.138Z,93207.16
2023-03-08T18:02:37.376Z,93207.69
2023-03-08T18:05:05.878Z,93215.63
2023-03-08T18:07:34.912Z,93210.53
2023-03-08T18:10:01.431Z,93192.06
2023-03-08T18:12:30.024Z,93217.72
2023-03-08T18:14:56.476Z,93222.94
2023-03-08T18:17:25.850Z,93210.34
2023-03-08T18:19:55.556Z,93216.97
2023-03-08T18:22:23.159Z,93229.03
2023-03-08T18:24:49.733Z,93225.88
2023-03-08T18:27:16.307Z,93215.38
2023-03-08T18:29:43.045Z,93228.75
2023-03-08T18:32:09.675Z,93230.13
2023-03-08T18:34:37.160Z,93233.06
2023-03-08T18:37:06.676Z,93238.38
2023-03-08T18:39:33.434Z,93245.56
2023-03-08T18:42:01.409Z,93242.78
2023-03-08T18:44:28.226Z,93268.72
2023-03-08T18:46:54.709Z,93253.63
2023-03-08T18:49:21.538Z,93249.84
2023-03-08T18:51:48.052Z,93281.94
2023-03-08T18:54:19.641Z,93258.41
2023-03-08T18:56:48.819Z,93275.81
2023-03-08T18:59:15.649Z,93266.50
2023-03-08T19:01:43.821Z,93258.66
2023-03-08T19:04:10.528Z,93321.66
2023-03-08T19:06:37.217Z,93256.22
2023-03-08T19:09:08.087Z,93297.28
2023-03-08T19:11:35.362Z,93322.97
2023-03-08T19:14:01.756Z,93301.50
2023-03-08T19:16:30.767Z,93323.44
2023-03-08T19:18:59.000Z,93302.81
2023-03-08T19:21:27.837Z,93344.56
2023-03-08T19:23:54.529Z,93324.25
2023-03-08T19:26:37.241Z,93282.44
2023-03-08T19:29:07.189Z,93311.03
2023-03-08T19:31:34.537Z,93303.25
2023-03-08T19:34:04.084Z,93301.09
2023-03-08T19:36:30.656Z,93294.47
2023-03-08T19:38:57.785Z,93292.63
2023-03-08T19:41:24.334Z,93269.66
2023-03-08T19:43:50.847Z,93261.88
2023-03-08T19:46:17.976Z,93294.69
2023-03-08T19:48:45.196Z,93279.47
2023-03-08T19:51:12.535Z,93280.47
2023-03-08T19:53:39.041Z,93292.16
2023-03-08T19:56:06.171Z,93291.59
2023-03-08T19:58:32.605Z,93291.06
2023-03-08T20:01:02.130Z,93270.97
2023-03-08T20:03:29.664Z,93269.13
2023-03-08T20:05:56.606Z,93260.91
2023-03-08T20:08:23.624Z,93258.03
2023-03-08T20:10:50.079Z,93260.25
2023-03-08T20:13:16.497Z,93250.47
2023-03-08T20:15:42.852Z,93247.81
2023-03-08T20:18:09.423Z,93247.84
2023-03-08T20:20:36.849Z,93253.28
2023-03-08T20:23:04.259Z,93264.69
2023-03-08T20:25:30.696Z,93283.53
2023-03-08T20:27:57.168Z,93258.13
2023-03-08T20:30:23.777Z,93264.34
2023-03-08T20:32:50.331Z,93255.59
2023-03-08T20:35:17.061Z,93256.59
2023-03-08T20:37:44.209Z,93256.25
2023-03-08T20:40:12.652Z,93252.94
2023-03-08T20:42:39.182Z,93243.72
2023-03-08T20:45:06.777Z,93247.06
2023-03-08T20:47:33.236Z,93242.19
2023-03-08T20:49:59.809Z,93246.50
2023-03-08T20:52:26.531Z,93232.09
2023-03-08T20:54:54.625Z,93242.75
2023-03-08T20:57:24.433Z,93230.09
2023-03-08T20:59:51.136Z,93229.00
2023-03-08T21:02:17.871Z,93222.91
2023-03-08T21:04:44.339Z,93212.13
2023-03-08T21:07:10.758Z,93213.47
2023-03-08T21:09:37.160Z,93210.69
2023-03-08T21:12:04.429Z,93204.59
2023-03-08T21:14:30.885Z,93202.72
2023-03-08T21:16:57.365Z,93194.28
2023-03-08T21:19:23.855Z,93193.50
2023-03-08T21:21:50.709Z,93193.06
2023-03-08T21:24:18.779Z,93188.41
2023-03-08T21:26:45.680Z,93181.75
2023-03-08T21:29:15.008Z,93179.00
2023-03-08T21:31:43.160Z,93176.44
2023-03-08T21:34:11.763Z,93179.44
2023-03-08T21:36:39.102Z,93168.69
2023-03-08T21:39:10.670Z,93159.81
2023-03-08T21:41:39.352Z,93158.03
2023-03-08T21:44:13.393Z,93157.81
2023-03-08T21:46:41.217Z,93162.91
2023-03-08T21:49:14.062Z,93166.78
2023-03-08T21:51:40.446Z,93171.19
2023-03-08T21:54:06.850Z,93152.25
2023-03-08T21:56:35.592Z,93156.00
2023-03-08T21:59:02.565Z,93157.56
2023-03-08T22:01:30.693Z,93155.09
2023-03-08T22:03:59.101Z,93139.81
2023-03-08T22:06:26.127Z,93142.91
2023-03-08T22:08:52.572Z,93145.00
2023-03-08T22:11:19.781Z,93144.47
2023-03-08T22:13:49.783Z,93153.53
2023-03-08T22:16:16.221Z,93149.59
2023-03-08T22:18:42.670Z,93143.72
2023-03-08T22:21:09.715Z,93147.94
2023-03-08T22:23:36.112Z,93138.16
2023-03-08T22:26:06.209Z,93139.22
2023-03-08T22:28:32.599Z,93131.66
2023-03-08T22:30:58.990Z,93141.97
2023-03-08T22:33:25.418Z,93147.38
2023-03-08T22:35:51.818Z,93146.59
2023-03-08T22:38:20.194Z,93144.38
2023-03-08T22:40:46.655Z,93139.59
2023-03-08T22:43:13.316Z,93139.19
2023-03-08T22:45:39.710Z,93139.53
2023-03-08T22:48:06.469Z,93137.41
2023-03-08T22:50:32.863Z,93137.75
2023-03-08T22:52:59.261Z,93141.06
2023-03-08T22:55:26.388Z,93142.31
2023-03-08T22:57:52.827Z,93131.84
2023-03-08T23:00:19.935Z,93139.53
2023-03-08T23:02:47.118Z,93138.97
2023-03-08T23:05:15.343Z,93147.28
2023-03-08T23:07:42.075Z,93137.75
2023-03-08T23:10:10.614Z,93131.09
2023-03-08T23:12:37.832Z,93128.44
2023-03-08T23:15:05.705Z,93125.13
2023-03-08T23:17:32.338Z,93125.81
2023-03-08T23:19:58.742Z,93131.00
2023-03-08T23:22:25.265Z,93125.34
2023-03-08T23:24:51.794Z,93124.44
2023-03-08T23:27:18.259Z,93137.06
2023-03-08T23:29:45.366Z,93125.28
2023-03-08T23:32:12.010Z,93127.69
2023-03-08T23:34:38.531Z,93140.03
2023-03-08T23:37:05.107Z,93126.81
2023-03-08T23:39:33.167Z,93146.69
2023-03-08T23:41:59.752Z,93133.34
2023-03-08T23:44:26.481Z,93134.13
2023-03-08T23:46:53.586Z,93136.06
2023-03-08T23:49:20.041Z,93137.91
2023-03-08T23:51:46.485Z,93150.13
2023-03-08T23:54:12.964Z,93143.59
2023-03-08T23:56:40.231Z,93154.63
2023-03-08T23:59:10.176Z,93144.47
